createdAt,value
2017-09-05T00:00:09.314Z,82.71
2017-09-05T00:00:49.877Z,82.23
2017-09-05T00:01:30.372Z,82.71
2017-09-05T00:02:10.909Z,82.75
2017-09-05T00:02:51.467Z,82.71
2017-09-05T00:03:32.010Z,82.71
2017-09-05T00:04:12.576Z,82.85
2017-09-05T00:04:53.066Z,82.85
2017-09-05T00:05:33.616Z,82.14
2017-09-05T00:06:14.193Z,82.14
2017-09-05T00:06:54.739Z,82.27
2017-09-05T00:07:35.256Z,82.46
2017-09-05T00:08:15.833Z,81.88
2017-09-05T00:08:56.394Z,81.79
2017-09-05T00:09:36.967Z,82.17
2017-09-05T00:10:17.525Z,81.3
2017-09-05T00:10:58.089Z,81.75
2017-09-05T00:11:38.643Z,81.94
2017-09-05T00:12:19.159Z,81.7
2017-09-05T00:12:59.641Z,81.94
2017-09-05T00:13:40.173Z,81.75
2017-09-05T00:14:20.775Z,81.75
2017-09-05T00:15:01.320Z,81.94
2017-09-05T00:15:41.811Z,82.14
2017-09-05T00:16:22.357Z,81.37
2017-09-05T00:17:02.914Z,81.17
2017-09-05T00:17:43.521Z,81.75
2017-09-05T00:18:24.006Z,81.75
2017-09-05T00:19:04.552Z,82.04
2017-09-05T00:19:45.104Z,81.79
2017-09-05T00:20:25.603Z,81.5
2017-09-05T00:21:06.161Z,81.56
2017-09-05T00:21:46.685Z,82.04
2017-09-05T00:22:27.234Z,81.65
2017-09-05T00:23:07.813Z,81.75
2017-09-05T00:23:48.387Z,81.94
2017-09-05T00:24:28.896Z,81.94
2017-09-05T00:25:09.397Z,81.84
2017-09-05T00:25:49.951Z,82.42
2017-09-05T00:26:30.522Z,82.23
2017-09-05T00:27:11.079Z,82.42
2017-09-05T00:27:51.650Z,82.32
2017-09-05T00:28:32.176Z,82.23
2017-09-05T00:29:12.793Z,82.81
2017-09-05T00:29:53.267Z,82.32
2017-09-05T00:30:33.830Z,82.14
2017-09-05T00:31:14.357Z,82.42
2017-09-05T00:31:54.855Z,82.14
2017-09-05T00:32:35.409Z,82.52
2017-09-05T00:33:15.935Z,81.94
2017-09-05T00:33:56.473Z,82.71
2017-09-05T00:34:37.016Z,82.9
2017-09-05T00:35:17.506Z,82.52
2017-09-05T00:35:58.068Z,82.71
2017-09-05T00:36:38.633Z,82.81
2017-09-05T00:37:19.104Z,82.52
2017-09-05T00:37:59.652Z,82.9
2017-09-05T00:38:40.209Z,82.52
2017-09-05T00:39:20.757Z,82.71
2017-09-05T00:40:01.295Z,82.9
2017-09-05T00:40:41.835Z,82.81
2017-09-05T00:41:22.371Z,82.37
2017-09-05T00:42:02.903Z,82.52
2017-09-05T00:42:43.369Z,82.37
2017-09-05T00:43:23.927Z,82.17
2017-09-05T00:44:04.499Z,82.14
2017-09-05T00:44:45.068Z,82.23
2017-09-05T00:45:25.584Z,82.27
2017-09-05T00:46:06.155Z,82.37
2017-09-05T00:46:46.675Z,82.27
2017-09-05T00:47:27.198Z,82.46
2017-09-05T00:48:07.739Z,82.17
2017-09-05T00:48:48.263Z,82.27
2017-09-05T00:49:28.808Z,81.98
2017-09-05T00:50:09.329Z,82.08
2017-09-05T00:50:49.877Z,81.98
2017-09-05T00:51:30.490Z,82.17
2017-09-05T00:52:11.033Z,81.88
2017-09-05T00:52:51.596Z,82.17
2017-09-05T00:53:32.161Z,81.4
2017-09-05T00:54:12.680Z,81.21
2017-09-05T00:54:53.253Z,81.3
2017-09-05T00:55:33.798Z,81.84
2017-09-05T00:56:14.294Z,82.17
2017-09-05T00:56:55.366Z,82.17
2017-09-05T00:57:35.429Z,81.65
2017-09-05T00:58:15.929Z,81.75
2017-09-05T00:58:56.549Z,81.94
2017-09-05T00:59:37.034Z,81.79
2017-09-05T01:00:17.511Z,81.98
2017-09-05T01:00:58.116Z,82.08
2017-09-05T01:01:38.645Z,81.6
2017-09-05T01:02:19.158Z,81.46
2017-09-05T01:02:59.724Z,81.94
2017-09-05T01:03:40.202Z,81.98
2017-09-05T01:04:20.779Z,81.5
2017-09-05T01:05:01.286Z,81.94
2017-09-05T01:05:41.807Z,81.6
2017-09-05T01:06:22.362Z,81.75
2017-09-05T01:07:02.895Z,81.75
2017-09-05T01:07:43.419Z,81.56
2017-09-05T01:08:23.951Z,81.79
2017-09-05T01:09:05.262Z,82.46
2017-09-05T01:09:45.799Z,81.94
2017-09-05T01:10:26.323Z,82.04
2017-09-05T01:11:06.890Z,81.75
2017-09-05T01:11:47.384Z,81.84
2017-09-05T01:12:27.960Z,81.75
2017-09-05T01:13:08.489Z,81.65
2017-09-05T01:13:49.003Z,82.04
2017-09-05T01:14:29.557Z,81.75
2017-09-05T01:15:10.086Z,81.94
2017-09-05T01:15:50.603Z,82.04
2017-09-05T01:16:31.173Z,82.42
2017-09-05T01:17:11.652Z,82.42
2017-09-05T01:17:52.302Z,81.94
2017-09-05T01:18:32.846Z,82.14
2017-09-05T01:19:13.429Z,82.32
2017-09-05T01:19:53.946Z,82.27
2017-09-05T01:20:34.500Z,82.17
2017-09-05T01:21:15.047Z,82.32
2017-09-05T01:21:55.576Z,82.27
2017-09-05T01:22:36.121Z,82.14
2017-09-05T01:23:16.602Z,81.94
2017-09-05T01:23:57.209Z,82.14
2017-09-05T01:24:37.743Z,82.42
2017-09-05T01:25:18.299Z,82.14
2017-09-05T01:25:58.807Z,81.94
2017-09-05T01:26:39.369Z,82.14
2017-09-05T01:27:19.885Z,82.14
2017-09-05T01:28:00.385Z,82.14
2017-09-05T01:28:40.954Z,82.42
2017-09-05T01:29:21.482Z,81.75
2017-09-05T01:30:01.996Z,82.52
2017-09-05T01:30:42.549Z,82.42
2017-09-05T01:31:23.057Z,82.61
2017-09-05T01:32:03.623Z,82.71
2017-09-05T01:32:44.119Z,82.23
2017-09-05T01:33:24.707Z,82.23
2017-09-05T01:34:05.239Z,82.81
2017-09-05T01:34:45.790Z,82.71
2017-09-05T01:35:26.372Z,82.71
2017-09-05T01:36:06.872Z,82.61
2017-09-05T01:36:47.397Z,82.52
2017-09-05T01:37:27.983Z,82.52
2017-09-05T01:38:08.489Z,82.81
2017-09-05T01:38:49.044Z,82.9
2017-09-05T01:39:29.579Z,82.81
2017-09-05T01:40:10.157Z,82.81
2017-09-05T01:40:50.665Z,83.09
2017-09-05T01:41:31.228Z,83.48
2017-09-05T01:42:11.772Z,82.81
2017-09-05T01:42:52.284Z,83.67
2017-09-05T01:43:32.898Z,83.09
2017-09-05T01:44:13.477Z,83.86
2017-09-05T01:44:53.986Z,82.52
2017-09-05T01:45:34.488Z,82.71
2017-09-05T01:46:15.080Z,82.71
2017-09-05T01:46:55.588Z,83.19
2017-09-05T01:47:36.140Z,82.71
2017-09-05T01:48:16.728Z,83.48
2017-09-05T01:48:57.249Z,83.39
2017-09-05T01:49:38.388Z,83.48
2017-09-05T01:50:18.402Z,83.39
2017-09-05T01:50:58.938Z,83.48
2017-09-05T01:51:39.552Z,83.58
2017-09-05T01:52:20.131Z,83.29
2017-09-05T01:53:00.622Z,83.77
2017-09-05T01:53:41.198Z,83.77
2017-09-05T01:54:21.705Z,83.77
2017-09-05T01:55:02.192Z,83.39
2017-09-05T01:55:42.752Z,83.29
2017-09-05T01:56:23.464Z,83.83
2017-09-05T01:57:03.939Z,83.39
2017-09-05T01:57:44.486Z,83.96
2017-09-05T01:58:24.972Z,83.34
2017-09-05T01:59:05.561Z,83.73
2017-09-05T01:59:46.098Z,83.44
2017-09-05T02:00:26.580Z,84.3
2017-09-05T02:01:07.165Z,84.01
2017-09-05T02:01:47.734Z,83.73
2017-09-05T02:02:28.275Z,84.25
2017-09-05T02:03:08.836Z,84.25
2017-09-05T02:03:49.370Z,83.67
2017-09-05T02:04:29.923Z,83.86
2017-09-05T02:05:10.479Z,83.73
2017-09-05T02:05:51.020Z,83.92
2017-09-05T02:06:31.541Z,84.34
2017-09-05T02:07:12.100Z,84.16
2017-09-05T02:07:52.658Z,84.11
2017-09-05T02:08:33.199Z,84.44
2017-09-05T02:09:14.398Z,83.77
2017-09-05T02:09:54.214Z,84.06
2017-09-05T02:10:34.771Z,84.06
2017-09-05T02:11:15.319Z,84.34
2017-09-05T02:11:55.836Z,83.96
2017-09-05T02:12:36.371Z,84.06
2017-09-05T02:13:16.900Z,84.34
2017-09-05T02:13:57.477Z,84.11
2017-09-05T02:14:37.998Z,83.58
2017-09-05T02:15:18.521Z,84.11
2017-09-05T02:15:59.082Z,83.77
2017-09-05T02:16:39.574Z,84.3
2017-09-05T02:17:20.143Z,84.34
2017-09-05T02:18:00.716Z,84.34
2017-09-05T02:18:41.249Z,84.16
2017-09-05T02:19:21.722Z,84.34
2017-09-05T02:20:02.331Z,84.25
2017-09-05T02:20:42.847Z,83.77
2017-09-05T02:21:23.458Z,84.16
2017-09-05T02:22:03.928Z,84.06
2017-09-05T02:22:44.504Z,84.16
2017-09-05T02:23:25.072Z,83.77
2017-09-05T02:24:05.765Z,84.16
2017-09-05T02:24:46.294Z,84.06
2017-09-05T02:25:26.860Z,83.77
2017-09-05T02:26:07.382Z,83.96
2017-09-05T02:26:47.906Z,84.16
2017-09-05T02:27:28.451Z,84.06
2017-09-05T02:28:08.930Z,84.16
2017-09-05T02:28:49.531Z,83.73
2017-09-05T02:29:30.079Z,84.16
2017-09-05T02:30:10.672Z,84.34
2017-09-05T02:30:51.212Z,84.83
2017-09-05T02:31:31.742Z,83.96
2017-09-05T02:32:12.309Z,83.67
2017-09-05T02:32:52.825Z,83.58
2017-09-05T02:33:33.459Z,84.06
2017-09-05T02:34:14.015Z,83.86
2017-09-05T02:34:54.515Z,84.16
2017-09-05T02:35:35.040Z,84.34
2017-09-05T02:36:15.582Z,83.96
2017-09-05T02:36:56.164Z,83.77
2017-09-05T02:37:36.665Z,83.86
2017-09-05T02:38:17.220Z,83.96
2017-09-05T02:38:57.803Z,84.34
2017-09-05T02:39:38.334Z,84.16
2017-09-05T02:40:18.896Z,83.67
2017-09-05T02:40:59.442Z,83.58
2017-09-05T02:41:40.000Z,84.06
2017-09-05T02:42:20.528Z,84.73
2017-09-05T02:43:01.041Z,84.63
2017-09-05T02:43:41.614Z,84.25
2017-09-05T02:44:22.275Z,84.34
2017-09-05T02:45:02.747Z,84.16
2017-09-05T02:45:43.261Z,84.34
2017-09-05T02:46:23.793Z,84.25
2017-09-05T02:47:04.334Z,84.25
2017-09-05T02:47:44.917Z,84.25
2017-09-05T02:48:25.462Z,84.16
2017-09-05T02:49:06.049Z,83.77
2017-09-05T02:49:46.567Z,84.44
2017-09-05T02:50:27.163Z,84.06
2017-09-05T02:51:07.689Z,84.16
2017-09-05T02:51:48.248Z,83.96
2017-09-05T02:52:28.816Z,84.54
2017-09-05T02:53:09.300Z,83.96
2017-09-05T02:53:49.836Z,84.54
2017-09-05T02:54:30.387Z,83.96
2017-09-05T02:55:10.974Z,84.16
2017-09-05T02:55:51.531Z,84.63
2017-09-05T02:56:32.095Z,84.06
2017-09-05T02:57:12.600Z,84.25
2017-09-05T02:57:53.237Z,84.16
2017-09-05T02:58:33.696Z,84.25
2017-09-05T02:59:14.306Z,83.96
2017-09-05T02:59:54.831Z,83.77
2017-09-05T03:00:35.434Z,83.86
2017-09-05T03:01:16.015Z,84.16
2017-09-05T03:01:56.597Z,84.16
2017-09-05T03:02:37.051Z,83.86
2017-09-05T03:03:17.659Z,83
2017-09-05T03:03:58.264Z,83.77
2017-09-05T03:04:38.755Z,83.58
2017-09-05T03:05:19.339Z,84.06
2017-09-05T03:05:59.915Z,83.58
2017-09-05T03:06:40.384Z,83.77
2017-09-05T03:07:20.915Z,83.58
2017-09-05T03:08:01.452Z,83.67
2017-09-05T03:08:42.029Z,83.77
2017-09-05T03:09:22.535Z,83
2017-09-05T03:10:03.122Z,83.48
2017-09-05T03:10:43.619Z,84.34
2017-09-05T03:11:24.216Z,83.86
2017-09-05T03:12:04.710Z,84.16
2017-09-05T03:12:45.242Z,83.96
2017-09-05T03:13:25.815Z,84.25
2017-09-05T03:14:06.299Z,83.77
2017-09-05T03:14:46.850Z,83.77
2017-09-05T03:15:27.382Z,83.19
2017-09-05T03:16:07.909Z,83.96
2017-09-05T03:16:48.492Z,83.77
2017-09-05T03:17:28.979Z,83.58
2017-09-05T03:18:09.553Z,83.96
2017-09-05T03:18:50.175Z,83.48
2017-09-05T03:19:30.725Z,83.77
2017-09-05T03:20:11.199Z,84.06
2017-09-05T03:20:51.758Z,84.16
2017-09-05T03:21:32.289Z,84.16
2017-09-05T03:22:12.807Z,84.16
2017-09-05T03:22:53.365Z,83.96
2017-09-05T03:23:33.915Z,83.86
2017-09-05T03:24:14.464Z,84.16
2017-09-05T03:24:54.973Z,84.34
2017-09-05T03:25:35.510Z,84.34
2017-09-05T03:26:16.079Z,83.96
2017-09-05T03:26:56.632Z,84.16
2017-09-05T03:27:37.120Z,84.16
2017-09-05T03:28:18.409Z,84.06
2017-09-05T03:28:58.979Z,83.77
2017-09-05T03:29:39.521Z,84.16
2017-09-05T03:30:20.026Z,83.96
2017-09-05T03:31:00.551Z,83.77
2017-09-05T03:31:41.078Z,83.58
2017-09-05T03:32:21.644Z,84.06
2017-09-05T03:33:02.157Z,84.34
2017-09-05T03:33:42.697Z,84.83
2017-09-05T03:34:23.268Z,84.25
2017-09-05T03:35:03.830Z,84.06
2017-09-05T03:35:44.315Z,84.34
2017-09-05T03:36:24.854Z,84.34
2017-09-05T03:37:05.373Z,85.02
2017-09-05T03:37:45.893Z,84.25
2017-09-05T03:38:26.427Z,84.06
2017-09-05T03:39:06.951Z,84.06
2017-09-05T03:39:47.482Z,83.86
2017-09-05T03:40:28.071Z,84.06
2017-09-05T03:41:08.574Z,84.06
2017-09-05T03:41:49.121Z,84.06
2017-09-05T03:42:29.643Z,84.06
2017-09-05T03:43:10.210Z,84.44
2017-09-05T03:43:50.723Z,84.25
2017-09-05T03:44:31.269Z,84.06
2017-09-05T03:45:11.782Z,84.63
2017-09-05T03:45:52.323Z,84.44
2017-09-05T03:46:32.896Z,84.63
2017-09-05T03:47:13.392Z,84.16
2017-09-05T03:47:53.922Z,84.06
2017-09-05T03:48:34.513Z,84.25
2017-09-05T03:49:15.088Z,84.73
2017-09-05T03:49:55.554Z,84.44
2017-09-05T03:50:36.101Z,84.73
2017-09-05T03:51:16.659Z,84.44
2017-09-05T03:51:57.261Z,84.06
2017-09-05T03:52:37.811Z,85.11
2017-09-05T03:53:18.381Z,84.34
2017-09-05T03:53:58.948Z,84.63
2017-09-05T03:54:39.629Z,84.25
2017-09-05T03:55:20.102Z,84.16
2017-09-05T03:56:00.721Z,84.06
2017-09-05T03:56:41.238Z,84.63
2017-09-05T03:57:21.784Z,84.4
2017-09-05T03:58:02.289Z,84.34
2017-09-05T03:58:42.883Z,84.44
2017-09-05T03:59:23.367Z,84.54
2017-09-05T04:00:04.001Z,84.44
2017-09-05T04:00:44.494Z,84.63
2017-09-05T04:01:25.059Z,84.25
2017-09-05T04:02:05.626Z,84.73
2017-09-05T04:02:46.124Z,84.34
2017-09-05T04:03:26.687Z,84.34
2017-09-05T04:04:07.218Z,84.34
2017-09-05T04:04:47.783Z,84.73
2017-09-05T04:05:28.385Z,84.92
2017-09-05T04:06:08.897Z,84.73
2017-09-05T04:06:49.391Z,84.92
2017-09-05T04:07:29.971Z,84.73
2017-09-05T04:08:10.505Z,84.63
2017-09-05T04:08:51.063Z,84.73
2017-09-05T04:09:31.592Z,84.83
2017-09-05T04:10:12.108Z,84.73
2017-09-05T04:10:52.653Z,84.54
2017-09-05T04:11:33.233Z,84.54
2017-09-05T04:12:13.760Z,84.73
2017-09-05T04:12:54.314Z,85.31
2017-09-05T04:13:34.858Z,84.63
2017-09-05T04:14:15.377Z,84.73
2017-09-05T04:14:55.900Z,84.54
2017-09-05T04:15:36.471Z,85.02
2017-09-05T04:16:17.026Z,84.44
2017-09-05T04:16:57.486Z,84.92
2017-09-05T04:17:38.068Z,84.34
2017-09-05T04:18:18.588Z,84.63
2017-09-05T04:18:59.105Z,84.25
2017-09-05T04:19:39.689Z,84.92
2017-09-05T04:20:20.305Z,85.02
2017-09-05T04:21:00.807Z,84.54
2017-09-05T04:21:41.331Z,84.54
2017-09-05T04:22:21.865Z,84.54
2017-09-05T04:23:02.416Z,84.44
2017-09-05T04:23:42.887Z,84.34
2017-09-05T04:24:23.445Z,84.34
2017-09-05T04:25:04.102Z,84.44
2017-09-05T04:25:44.669Z,84.73
2017-09-05T04:26:25.226Z,84.54
2017-09-05T04:27:05.758Z,84.63
2017-09-05T04:27:46.250Z,84.63
2017-09-05T04:28:26.810Z,84.44
2017-09-05T04:29:07.348Z,84.63
2017-09-05T04:29:47.833Z,84.44
2017-09-05T04:30:28.385Z,84.63
2017-09-05T04:31:08.915Z,84.63
2017-09-05T04:31:49.782Z,84.25
2017-09-05T04:32:30.451Z,84.25
2017-09-05T04:33:11.402Z,84.83
2017-09-05T04:33:52.297Z,84.34
2017-09-05T04:34:33.463Z,84.34
2017-09-05T04:35:13.956Z,84.92
2017-09-05T04:35:54.493Z,84.34
2017-09-05T04:36:35.322Z,84.44
2017-09-05T04:37:15.894Z,84.83
2017-09-05T04:37:56.537Z,84.63
2017-09-05T04:38:37.100Z,84.44
2017-09-05T04:39:17.708Z,84.92
2017-09-05T04:39:58.322Z,84.73
2017-09-05T04:40:38.879Z,84.83
2017-09-05T04:41:19.418Z,84.34
2017-09-05T04:41:59.928Z,84.54
2017-09-05T04:42:40.584Z,84.73
2017-09-05T04:43:21.140Z,84.63
2017-09-05T04:44:01.645Z,84.54
2017-09-05T04:44:42.192Z,84.54
2017-09-05T04:45:22.777Z,84.54
2017-09-05T04:46:03.323Z,84.54
2017-09-05T04:46:43.850Z,84.44
2017-09-05T04:47:24.447Z,84.73
2017-09-05T04:48:04.981Z,84.54
2017-09-05T04:48:45.479Z,84.54
2017-09-05T04:49:26.036Z,84.63
2017-09-05T04:50:06.610Z,84.34
2017-09-05T04:50:47.141Z,84.92
2017-09-05T04:51:27.671Z,84.83
2017-09-05T04:52:08.262Z,84.34
2017-09-05T04:52:48.797Z,84.92
2017-09-05T04:53:29.481Z,84.92
2017-09-05T04:54:09.994Z,85.11
2017-09-05T04:54:50.532Z,85.21
2017-09-05T04:55:31.077Z,85.11
2017-09-05T04:56:11.735Z,84.92
2017-09-05T04:56:52.230Z,85.21
2017-09-05T04:57:32.862Z,85.21
2017-09-05T04:58:13.366Z,84.92
2017-09-05T04:58:53.930Z,84.92
2017-09-05T04:59:34.423Z,84.83
2017-09-05T05:00:15.021Z,85.31
2017-09-05T05:00:55.575Z,85.11
2017-09-05T05:01:36.074Z,85.02
2017-09-05T05:02:16.655Z,84.63
2017-09-05T05:02:57.276Z,85.11
2017-09-05T05:03:37.884Z,85.11
2017-09-05T05:04:18.405Z,85.4
2017-09-05T05:04:58.986Z,85.5
2017-09-05T05:05:39.529Z,85.6
2017-09-05T05:06:20.042Z,85.69
2017-09-05T05:07:00.592Z,86.27
2017-09-05T05:07:41.169Z,85.69
2017-09-05T05:08:23.686Z,85.5
2017-09-05T05:09:04.284Z,85.69
2017-09-05T05:09:45.488Z,85.4
2017-09-05T05:10:25.983Z,85.5
2017-09-05T05:11:06.525Z,85.6
2017-09-05T05:11:47.079Z,85.31
2017-09-05T05:12:27.789Z,85.5
2017-09-05T05:13:08.332Z,85.78
2017-09-05T05:13:48.860Z,85.69
2017-09-05T05:14:29.404Z,85.5
2017-09-05T05:15:10.261Z,85.11
2017-09-05T05:15:51.819Z,84.63
2017-09-05T05:16:32.379Z,85.02
2017-09-05T05:17:13.021Z,84.83
2017-09-05T05:17:53.535Z,85.02
2017-09-05T05:18:34.112Z,84.92
2017-09-05T05:19:14.647Z,85.21
2017-09-05T05:19:55.197Z,84.92
2017-09-05T05:20:35.720Z,84.73
2017-09-05T05:21:16.289Z,84.39
2017-09-05T05:21:58.259Z,84.58
2017-09-05T05:22:38.774Z,85.6
2017-09-05T05:23:19.359Z,86.6
2017-09-05T05:24:00.042Z,86.56
2017-09-05T05:24:40.597Z,87.9
2017-09-05T05:25:21.206Z,88.29
2017-09-05T05:26:01.791Z,88.57
2017-09-05T05:26:43.368Z,88.19
2017-09-05T05:27:23.898Z,88.77
2017-09-05T05:28:04.617Z,89.97
2017-09-05T05:28:45.342Z,89.64
2017-09-05T05:29:25.877Z,89.39
2017-09-05T05:30:06.415Z,90.02
2017-09-05T05:30:46.973Z,89.78
2017-09-05T05:31:27.512Z,89.73
2017-09-05T05:32:09.095Z,90.5
2017-09-05T05:32:49.737Z,89.78
2017-09-05T05:33:30.392Z,89.68
2017-09-05T05:34:10.865Z,91.41
2017-09-05T05:34:51.400Z,92.08
2017-09-05T05:35:31.953Z,92.57
2017-09-05T05:36:12.506Z,93.43
2017-09-05T05:36:53.256Z,92.08
2017-09-05T05:37:33.801Z,92.76
2017-09-05T05:38:14.290Z,92.28
2017-09-05T05:38:56.158Z,91.99
2017-09-05T05:39:36.800Z,91.99
2017-09-05T05:40:17.468Z,92.08
2017-09-05T05:40:57.987Z,90.93
2017-09-05T05:41:38.492Z,91.7
2017-09-05T05:42:19.521Z,92.38
2017-09-05T05:43:00.249Z,91.13
2017-09-05T05:43:40.761Z,90.64
2017-09-05T05:44:22.103Z,90.35
2017-09-05T05:45:02.640Z,89.97
2017-09-05T05:45:43.428Z,89.68
2017-09-05T05:46:24.418Z,89.39
2017-09-05T05:47:04.988Z,88.62
2017-09-05T05:47:46.008Z,88.33
2017-09-05T05:48:26.317Z,88.43
2017-09-05T05:49:06.869Z,88.91
2017-09-05T05:49:47.460Z,88.91
2017-09-05T05:50:28.545Z,88.43
2017-09-05T05:51:09.971Z,88.14
2017-09-05T05:51:50.636Z,87.95
2017-09-05T05:52:31.845Z,87.95
2017-09-05T05:53:12.387Z,88.71
2017-09-05T05:53:53.073Z,88.62
2017-09-05T05:54:33.537Z,87.51
2017-09-05T05:55:14.087Z,86.79
2017-09-05T05:55:54.724Z,87.18
2017-09-05T05:56:35.540Z,87.18
2017-09-05T05:57:16.136Z,88.14
2017-09-05T05:57:56.609Z,87.8
2017-09-05T05:58:37.328Z,88.04
2017-09-05T05:59:17.765Z,88.47
2017-09-05T05:59:58.368Z,88.28
2017-09-05T06:00:38.989Z,87.99
2017-09-05T06:01:19.445Z,87.41
2017-09-05T06:02:00.125Z,87.8
2017-09-05T06:02:40.705Z,87.03
2017-09-05T06:03:21.479Z,87.22
2017-09-05T06:04:01.919Z,86.93
2017-09-05T06:04:42.460Z,86.83
2017-09-05T06:05:22.948Z,87.41
2017-09-05T06:06:03.522Z,88.28
2017-09-05T06:06:44.082Z,88.18
2017-09-05T06:07:24.609Z,88.18
2017-09-05T06:08:05.156Z,88.76
2017-09-05T06:08:45.699Z,89.72
2017-09-05T06:09:26.526Z,91.41
2017-09-05T06:10:06.872Z,91.55
2017-09-05T06:10:47.473Z,91.31
2017-09-05T06:11:28.029Z,90.44
2017-09-05T06:12:08.594Z,89.48
2017-09-05T06:12:49.179Z,91.21
2017-09-05T06:13:29.770Z,90.83
2017-09-05T06:14:10.246Z,89.77
2017-09-05T06:14:50.787Z,89.09
2017-09-05T06:15:32.009Z,90.64
2017-09-05T06:16:12.528Z,91.21
2017-09-05T06:16:53.568Z,91.12
2017-09-05T06:17:34.492Z,91.02
2017-09-05T06:18:14.945Z,87.88
2017-09-05T06:18:55.513Z,90
2017-09-05T06:19:36.073Z,91.45
2017-09-05T06:20:16.591Z,91.64
2017-09-05T06:20:57.221Z,93.19
2017-09-05T06:21:37.774Z,92.8
2017-09-05T06:22:18.231Z,93.13
2017-09-05T06:22:58.779Z,92.32
2017-09-05T06:23:39.333Z,90.1
2017-09-05T06:24:19.877Z,89.57
2017-09-05T06:25:00.406Z,90.58
2017-09-05T06:25:41.000Z,88.85
2017-09-05T06:26:21.519Z,90.05
2017-09-05T06:27:02.298Z,91.02
2017-09-05T06:27:43.052Z,91.5
2017-09-05T06:28:23.535Z,88.7
2017-09-05T06:29:04.081Z,89.95
2017-09-05T06:29:44.657Z,92.36
2017-09-05T06:30:25.144Z,91.6
2017-09-05T06:31:05.802Z,89.47
2017-09-05T06:31:46.245Z,89.09
2017-09-05T06:32:26.786Z,89.86
2017-09-05T06:33:07.352Z,89.09
2017-09-05T06:33:47.932Z,87.45
2017-09-05T06:34:28.465Z,86.68
2017-09-05T06:35:09.044Z,86.77
2017-09-05T06:35:49.562Z,88.12
2017-09-05T06:36:30.114Z,87.59
2017-09-05T06:37:10.646Z,87.4
2017-09-05T06:37:51.159Z,85.85
2017-09-05T06:38:31.719Z,84.21
2017-09-05T06:39:12.273Z,86.43
2017-09-05T06:39:52.805Z,85.37
2017-09-05T06:40:33.334Z,84.98
2017-09-05T06:41:13.900Z,83.25
2017-09-05T06:41:55.339Z,83.53
2017-09-05T06:42:35.839Z,79.58
2017-09-05T06:43:16.460Z,81.6
2017-09-05T06:43:56.993Z,80.93
2017-09-05T06:44:37.492Z,80.93
2017-09-05T06:45:18.094Z,81.12
2017-09-05T06:45:58.626Z,80.54
2017-09-05T06:46:39.180Z,82.18
2017-09-05T06:47:19.932Z,82.96
2017-09-05T06:48:00.420Z,83.05
2017-09-05T06:48:41.004Z,84.98
2017-09-05T06:49:21.517Z,82.86
2017-09-05T06:50:02.095Z,82.48
2017-09-05T06:50:42.663Z,82.96
2017-09-05T06:51:23.473Z,81.9
2017-09-05T06:52:06.573Z,82.18
2017-09-05T06:52:47.131Z,81.02
2017-09-05T06:53:27.619Z,81.93
2017-09-05T06:54:08.165Z,81.35
2017-09-05T06:54:48.764Z,78.27
2017-09-05T06:55:29.312Z,77.46
2017-09-05T06:56:09.840Z,77.3
2017-09-05T06:56:50.441Z,82.67
2017-09-05T06:57:31.012Z,82.81
2017-09-05T06:58:11.547Z,81.55
2017-09-05T06:58:52.089Z,82.51
2017-09-05T06:59:32.626Z,82.13
2017-09-05T07:00:13.136Z,81.65
2017-09-05T07:00:53.723Z,80.58
2017-09-05T07:01:34.301Z,78.08
2017-09-05T07:02:15.066Z,81.35
2017-09-05T07:02:55.609Z,82.9
2017-09-05T07:03:36.119Z,83.09
2017-09-05T07:04:16.693Z,85.41
2017-09-05T07:04:57.218Z,83.77
2017-09-05T07:05:37.797Z,82.36
2017-09-05T07:06:18.371Z,83.14
2017-09-05T07:06:58.925Z,82.26
2017-09-05T07:07:39.475Z,82.46
2017-09-05T07:08:20.023Z,82.26
2017-09-05T07:09:00.567Z,82.56
2017-09-05T07:09:41.082Z,83.18
2017-09-05T07:10:21.685Z,82.69
2017-09-05T07:11:02.313Z,84.1
2017-09-05T07:11:42.804Z,83.23
2017-09-05T07:12:23.416Z,80.14
2017-09-05T07:13:03.950Z,80.57
2017-09-05T07:13:44.504Z,82.21
2017-09-05T07:14:25.075Z,83.37
2017-09-05T07:15:05.557Z,83.08
2017-09-05T07:15:46.112Z,82.6
2017-09-05T07:16:26.806Z,77.57
2017-09-05T07:17:07.320Z,78
2017-09-05T07:17:47.849Z,78.48
2017-09-05T07:18:28.408Z,79.16
2017-09-05T07:19:08.948Z,81.32
2017-09-05T07:19:49.552Z,81.04
2017-09-05T07:20:30.107Z,76.2
2017-09-05T07:21:10.628Z,82.39
2017-09-05T07:21:51.217Z,83.26
2017-09-05T07:22:31.716Z,80.84
2017-09-05T07:23:12.286Z,81.38
2017-09-05T07:23:52.890Z,81.96
2017-09-05T07:24:33.424Z,82.25
2017-09-05T07:25:13.989Z,81.19
2017-09-05T07:25:54.633Z,80.8
2017-09-05T07:26:35.134Z,81.87
2017-09-05T07:27:15.738Z,83.55
2017-09-05T07:27:56.243Z,83.12
2017-09-05T07:28:36.771Z,81.71
2017-09-05T07:29:17.347Z,78.81
2017-09-05T07:29:57.921Z,73.97
2017-09-05T07:30:38.513Z,75.43
2017-09-05T07:31:19.063Z,74.07
2017-09-05T07:31:59.569Z,73.88
2017-09-05T07:32:40.091Z,73.88
2017-09-05T07:33:20.602Z,73.68
2017-09-05T07:34:01.180Z,73.88
2017-09-05T07:34:41.687Z,72.97
2017-09-05T07:35:22.284Z,74.52
2017-09-05T07:36:02.836Z,73.88
2017-09-05T07:36:43.353Z,73.1
2017-09-05T07:37:23.867Z,71.75
2017-09-05T07:38:04.444Z,73.3
2017-09-05T07:38:45.046Z,75.33
2017-09-05T07:39:25.615Z,76.01
2017-09-05T07:40:06.241Z,72.91
2017-09-05T07:40:46.771Z,74.55
2017-09-05T07:41:27.345Z,73.88
2017-09-05T07:42:07.896Z,73.97
2017-09-05T07:42:48.576Z,74.85
2017-09-05T07:43:29.095Z,76.64
2017-09-05T07:44:09.652Z,76.45
2017-09-05T07:44:50.252Z,83.61
2017-09-05T07:45:30.748Z,80.03
2017-09-05T07:46:11.330Z,80.51
2017-09-05T07:46:51.915Z,77.51
2017-09-05T07:47:32.426Z,75.91
2017-09-05T07:48:12.976Z,76.55
2017-09-05T07:48:53.550Z,76.84
2017-09-05T07:49:34.145Z,75.58
2017-09-05T07:50:14.724Z,75.39
2017-09-05T07:50:55.281Z,75.68
2017-09-05T07:51:35.837Z,74.04
2017-09-05T07:52:16.400Z,76.84
2017-09-05T07:52:56.955Z,77.71
2017-09-05T07:53:37.494Z,79.29
2017-09-05T07:54:18.063Z,76.68
2017-09-05T07:54:58.638Z,74.85
2017-09-05T07:55:39.169Z,80.26
2017-09-05T07:56:19.723Z,83.55
2017-09-05T07:57:00.270Z,79.87
2017-09-05T07:57:40.913Z,82.97
2017-09-05T07:58:21.483Z,78.03
2017-09-05T07:59:02.040Z,77.75
2017-09-05T07:59:42.572Z,76.01
2017-09-05T08:00:23.119Z,78.91
2017-09-05T08:01:03.654Z,81.9
2017-09-05T08:01:44.198Z,75.33
2017-09-05T08:02:24.773Z,79.97
2017-09-05T08:03:05.338Z,79.25
2017-09-05T08:03:45.889Z,85.58
2017-09-05T08:04:26.433Z,81.23
2017-09-05T08:05:07.010Z,82.97
2017-09-05T08:05:47.564Z,80.74
2017-09-05T08:06:28.135Z,76.59
2017-09-05T08:07:08.697Z,81.23
2017-09-05T08:07:49.267Z,82.2
2017-09-05T08:08:29.809Z,82.23
2017-09-05T08:09:10.379Z,85.58
2017-09-05T08:09:50.933Z,85.1
2017-09-05T08:10:31.468Z,82.87
2017-09-05T08:11:12.050Z,80.26
2017-09-05T08:11:52.576Z,80.65
2017-09-05T08:12:33.169Z,81.23
2017-09-05T08:13:13.841Z,80.07
2017-09-05T08:13:54.415Z,76.49
2017-09-05T08:14:34.987Z,74.75
2017-09-05T08:15:15.526Z,73.49
2017-09-05T08:15:56.094Z,73.68
2017-09-05T08:16:36.646Z,72.14
2017-09-05T08:17:17.304Z,74.62
2017-09-05T08:17:57.872Z,80.26
2017-09-05T08:18:38.393Z,80.36
2017-09-05T08:19:18.945Z,82.29
2017-09-05T08:19:59.529Z,80.55
2017-09-05T08:20:40.047Z,80.74
2017-09-05T08:21:20.602Z,83.03
2017-09-05T08:22:01.152Z,81.96
2017-09-05T08:22:41.666Z,80.22
2017-09-05T08:23:22.203Z,77.8
2017-09-05T08:24:02.799Z,78.96
2017-09-05T08:24:43.292Z,79.25
2017-09-05T08:25:23.804Z,76.16
2017-09-05T08:26:04.357Z,75.87
2017-09-05T08:26:44.905Z,77.03
2017-09-05T08:27:25.479Z,78.58
2017-09-05T08:28:06.011Z,79.25
2017-09-05T08:28:46.580Z,79.02
2017-09-05T08:29:27.076Z,77.57
2017-09-05T08:30:07.643Z,78.58
2017-09-05T08:30:48.139Z,75.93
2017-09-05T08:31:28.681Z,75.58
2017-09-05T08:32:09.254Z,76.74
2017-09-05T08:32:49.853Z,75.39
2017-09-05T08:33:30.321Z,77.71
2017-09-05T08:34:10.891Z,77.22
2017-09-05T08:34:51.537Z,77.71
2017-09-05T08:35:32.065Z,75.87
2017-09-05T08:36:12.577Z,76.55
2017-09-05T08:36:53.129Z,77.8
2017-09-05T08:37:33.743Z,78.29
2017-09-05T08:38:14.285Z,77.94
2017-09-05T08:38:54.842Z,79
2017-09-05T08:39:35.411Z,79.29
2017-09-05T08:40:15.949Z,73.59
2017-09-05T08:40:56.464Z,79.06
2017-09-05T08:41:37.044Z,79.83
2017-09-05T08:42:17.652Z,78.96
2017-09-05T08:42:58.186Z,81.67
2017-09-05T08:43:38.732Z,82.83